sensor_id;sensor_type;location;lat;lon;timestamp;P1;durP1;ratioP1;P2;durP2;ratioP2
73508;SDS011;61750;55.036;73.312;2022-09-30T00:01:13;10.52;;;5.10;;
73508;SDS011;61750;55.036;73.312;2022-09-30T00:03:39;8.35;;;4.70;;
73508;SDS011;61750;55.036;73.312;2022-09-30T00:06:06;8.15;;;5.07;;
73508;SDS011;61750;55.036;73.312;2022-09-30T00:11:03;8.43;;;4.97;;
73508;SDS011;61750;55.036;73.312;2022-09-30T00:13:54;10.15;;;5.55;;
73508;SDS011;61750;55.036;73.312;2022-09-30T00:16:23;9.30;;;5.00;;
73508;SDS011;61750;55.036;73.312;2022-09-30T00:18:53;7.80;;;5.07;;
73508;SDS011;61750;55.036;73.312;2022-09-30T00:21:20;7.32;;;4.95;;
73508;SDS011;61750;55.036;73.312;2022-09-30T00:23:48;7.83;;;5.03;;
73508;SDS011;61750;55.036;73.312;2022-09-30T00:26:25;7.90;;;5.03;;
73508;SDS011;61750;55.036;73.312;2022-09-30T00:28:52;8.07;;;5.03;;
73508;SDS011;61750;55.036;73.312;2022-09-30T00:31:27;10.30;;;5.60;;
73508;SDS011;61750;55.036;73.312;2022-09-30T00:33:55;7.03;;;4.90;;
73508;SDS011;61750;55.036;73.312;2022-09-30T00:36:37;7.55;;;5.20;;
73508;SDS011;61750;55.036;73.312;2022-09-30T00:39:08;9.07;;;5.28;;
73508;SDS011;61750;55.036;73.312;2022-09-30T00:41:37;9.52;;;5.47;;
73508;SDS011;61750;55.036;73.312;2022-09-30T00:53:49;9.52;;;5.15;;
73508;SDS011;61750;55.036;73.312;2022-09-30T00:56:20;10.15;;;5.22;;
73508;SDS011;61750;55.036;73.312;2022-09-30T00:58:53;9.75;;;5.93;;
73508;SDS011;61750;55.036;73.312;2022-09-30T01:01:32;9.95;;;5.65;;
73508;SDS011;61750;55.036;73.312;2022-09-30T01:04:05;17.23;;;5.75;;
73508;SDS011;61750;55.036;73.312;2022-09-30T01:06:42;9.90;;;5.38;;
73508;SDS011;61750;55.036;73.312;2022-09-30T01:09:09;9.32;;;4.78;;
73508;SDS011;61750;55.036;73.312;2022-09-30T01:11:36;8.20;;;4.78;;
73508;SDS011;61750;55.036;73.312;2022-09-30T01:14:35;14.55;;;6.07;;
73508;SDS011;61750;55.036;73.312;2022-09-30T01:25:57;20.10;;;6.60;;
73508;SDS011;61750;55.036;73.312;2022-09-30T01:36:26;13.65;;;6.47;;
73508;SDS011;61750;55.036;73.312;2022-09-30T01:47:12;11.23;;;5.07;;
73508;SDS011;61750;55.036;73.312;2022-09-30T01:53:39;12.59;;;6.53;;
73508;SDS011;61750;55.036;73.312;2022-09-30T01:59:32;8.50;;;6.30;;
73508;SDS011;61750;55.036;73.312;2022-09-30T02:02:08;21.95;;;11.95;;
73508;SDS011;61750;55.036;73.312;2022-09-30T02:04:56;9.18;;;6.00;;
73508;SDS011;61750;55.036;73.312;2022-09-30T02:07:28;10.20;;;5.90;;
73508;SDS011;61750;55.036;73.312;2022-09-30T02:10:02;16.42;;;8.23;;
73508;SDS011;61750;55.036;73.312;2022-09-30T02:12:52;9.57;;;6.38;;
73508;SDS011;61750;55.036;73.312;2022-09-30T02:15:29;9.48;;;5.93;;
73508;SDS011;61750;55.036;73.312;2022-09-30T02:18:37;16.30;;;7.88;;
73508;SDS011;61750;55.036;73.312;2022-09-30T02:21:06;11.70;;;5.88;;
73508;SDS011;61750;55.036;73.312;2022-09-30T02:26:07;12.23;;;6.30;;
73508;SDS011;61750;55.036;73.312;2022-09-30T02:28:38;6.40;;;3.45;;
73508;SDS011;61750;55.036;73.312;2022-09-30T02:31:09;13.90;;;6.30;;
73508;SDS011;61750;55.036;73.312;2022-09-30T02:33:41;12.95;;;7.20;;
73508;SDS011;61750;55.036;73.312;2022-09-30T02:36:30;12.13;;;6.15;;
73508;SDS011;61750;55.036;73.312;2022-09-30T02:39:49;9.50;;;5.55;;
73508;SDS011;61750;55.036;73.312;2022-09-30T02:42:00;9.70;;;5.88;;
73508;SDS011;61750;55.036;73.312;2022-09-30T02:44:33;11.52;;;6.35;;
73508;SDS011;61750;55.036;73.312;2022-09-30T02:47:11;9.70;;;5.15;;
73508;SDS011;61750;55.036;73.312;2022-09-30T02:49:55;13.02;;;6.13;;
73508;SDS011;61750;55.036;73.312;2022-09-30T02:55:35;11.30;;;6.20;;
73508;SDS011;61750;55.036;73.312;2022-09-30T02:58:35;17.83;;;7.25;;
73508;SDS011;61750;55.036;73.312;2022-09-30T03:01:05;17.38;;;7.35;;
73508;SDS011;61750;55.036;73.312;2022-09-30T03:03:40;11.80;;;6.88;;
73508;SDS011;61750;55.036;73.312;2022-09-30T03:06:12;11.75;;;6.15;;
73508;SDS011;61750;55.036;73.312;2022-09-30T03:08:38;14.90;;;6.20;;
73508;SDS011;61750;55.036;73.312;2022-09-30T03:11:05;17.80;;;7.13;;
73508;SDS011;61750;55.036;73.312;2022-09-30T03:16:17;13.98;;;5.82;;
73508;SDS011;61750;55.036;73.312;2022-09-30T03:27:35;11.98;;;5.60;;
73508;SDS011;61750;55.036;73.312;2022-09-30T03:30:14;12.48;;;5.47;;
73508;SDS011;61750;55.036;73.312;2022-09-30T03:37:49;10.70;;;4.97;;
73508;SDS011;61750;55.036;73.312;2022-09-30T03:40:48;11.68;;;5.03;;
73508;SDS011;61750;55.036;73.312;2022-09-30T03:46:19;9.38;;;4.35;;
73508;SDS011;61750;55.036;73.312;2022-09-30T03:48:54;9.45;;;5.05;;
73508;SDS011;61750;55.036;73.312;2022-09-30T03:51:23;7.57;;;4.70;;
73508;SDS011;61750;55.036;73.312;2022-09-30T03:54:00;7.85;;;5.28;;
73508;SDS011;61750;55.036;73.312;2022-09-30T03:56:26;8.07;;;4.63;;
73508;SDS011;61750;55.036;73.312;2022-09-30T03:58:56;11.27;;;5.20;;
73508;SDS011;61750;55.036;73.312;2022-09-30T04:01:22;13.68;;;5.18;;
73508;SDS011;61750;55.036;73.312;2022-09-30T04:03:54;10.10;;;5.25;;
73508;SDS011;61750;55.036;73.312;2022-09-30T04:06:21;13.13;;;5.05;;
73508;SDS011;61750;55.036;73.312;2022-09-30T04:08:49;11.35;;;5.60;;
73508;SDS011;61750;55.036;73.312;2022-09-30T04:11:21;14.15;;;5.35;;
73508;SDS011;61750;55.036;73.312;2022-09-30T04:13:47;8.32;;;4.72;;
73508;SDS011;61750;55.036;73.312;2022-09-30T04:16:13;11.07;;;4.95;;
73508;SDS011;61750;55.036;73.312;2022-09-30T04:18:39;8.35;;;1.95;;
73508;SDS011;61750;55.036;73.312;2022-09-30T04:21:17;10.45;;;4.28;;
73508;SDS011;61750;55.036;73.312;2022-09-30T04:23:43;5.38;;;3.90;;
73508;SDS011;61750;55.036;73.312;2022-09-30T04:26:11;8.82;;;4.20;;
73508;SDS011;61750;55.036;73.312;2022-09-30T04:28:39;5.25;;;3.40;;
73508;SDS011;61750;55.036;73.312;2022-09-30T04:31:15;9.07;;;4.22;;
73508;SDS011;61750;55.036;73.312;2022-09-30T04:33:55;8.82;;;3.85;;
73508;SDS011;61750;55.036;73.312;2022-09-30T04:36:22;10.45;;;4.72;;
73508;SDS011;61750;55.036;73.312;2022-09-30T04:38:48;11.60;;;4.90;;
73508;SDS011;61750;55.036;73.312;2022-09-30T04:41:20;15.10;;;5.95;;
73508;SDS011;61750;55.036;73.312;2022-09-30T04:43:46;16.42;;;5.28;;
73508;SDS011;61750;55.036;73.312;2022-09-30T04:46:13;11.63;;;4.47;;
73508;SDS011;61750;55.036;73.312;2022-09-30T04:48:41;11.43;;;4.13;;
73508;SDS011;61750;55.036;73.312;2022-09-30T04:51:11;8.57;;;4.38;;
73508;SDS011;61750;55.036;73.312;2022-09-30T04:53:38;4.30;;;3.10;;
73508;SDS011;61750;55.036;73.312;2022-09-30T04:56:05;13.35;;;5.40;;
73508;SDS011;61750;55.036;73.312;2022-09-30T05:01:03;9.82;;;4.22;;
73508;SDS011;61750;55.036;73.312;2022-09-30T05:03:31;7.40;;;4.47;;
73508;SDS011;61750;55.036;73.312;2022-09-30T05:06:11;9.68;;;4.00;;
73508;SDS011;61750;55.036;73.312;2022-09-30T05:08:37;4.30;;;2.50;;
73508;SDS011;61750;55.036;73.312;2022-09-30T05:11:05;15.05;;;3.95;;
73508;SDS011;61750;55.036;73.312;2022-09-30T05:16:05;7.57;;;3.80;;
73508;SDS011;61750;55.036;73.312;2022-09-30T05:21:01;11.23;;;4.18;;
73508;SDS011;61750;55.036;73.312;2022-09-30T05:26:01;8.55;;;4.10;;
73508;SDS011;61750;55.036;73.312;2022-09-30T05:31:01;6.15;;;3.17;;
73508;SDS011;61750;55.036;73.312;2022-09-30T05:33:31;6.65;;;3.40;;
73508;SDS011;61750;55.036;73.312;2022-09-30T05:41:05;7.32;;;3.95;;
73508;SDS011;61750;55.036;73.312;2022-09-30T05:43:43;6.97;;;3.25;;
73508;SDS011;61750;55.036;73.312;2022-09-30T05:46:20;7.05;;;3.97;;
73508;SDS011;61750;55.036;73.312;2022-09-30T05:48:51;7.00;;;4.78;;
73508;SDS011;61750;55.036;73.312;2022-09-30T05:51:19;7.00;;;3.63;;
73508;SDS011;61750;55.036;73.312;2022-09-30T05:53:45;4.85;;;3.00;;
73508;SDS011;61750;55.036;73.312;2022-09-30T05:56:11;7.38;;;3.75;;
73508;SDS011;61750;55.036;73.312;2022-09-30T05:58:38;3.40;;;2.40;;
73508;SDS011;61750;55.036;73.312;2022-09-30T06:01:07;9.10;;;3.35;;
73508;SDS011;61750;55.036;73.312;2022-09-30T06:03:38;7.72;;;3.72;;
73508;SDS011;61750;55.036;73.312;2022-09-30T06:06:07;10.38;;;3.80;;
73508;SDS011;61750;55.036;73.312;2022-09-30T06:11:01;12.63;;;3.40;;
73508;SDS011;61750;55.036;73.312;2022-09-30T06:13:36;2.90;;;1.80;;
73508;SDS011;61750;55.036;73.312;2022-09-30T06:21:02;7.05;;;3.45;;
73508;SDS011;61750;55.036;73.312;2022-09-30T06:26:01;9.32;;;3.05;;
73508;SDS011;61750;55.036;73.312;2022-09-30T06:31:01;9.45;;;3.40;;
73508;SDS011;61750;55.036;73.312;2022-09-30T06:33:28;5.43;;;3.42;;
73508;SDS011;61750;55.036;73.312;2022-09-30T06:35:56;7.70;;;3.47;;
73508;SDS011;61750;55.036;73.312;2022-09-30T06:41:05;8.70;;;3.65;;
73508;SDS011;61750;55.036;73.312;2022-09-30T06:46:06;5.80;;;2.50;;
73508;SDS011;61750;55.036;73.312;2022-09-30T06:51:01;3.30;;;2.17;;
73508;SDS011;61750;55.036;73.312;2022-09-30T06:56:04;11.57;;;3.47;;
73508;SDS011;61750;55.036;73.312;2022-09-30T07:01:03;6.40;;;2.70;;
73508;SDS011;61750;55.036;73.312;2022-09-30T07:03:31;9.15;;;3.70;;
73508;SDS011;61750;55.036;73.312;2022-09-30T07:06:00;8.13;;;3.42;;
73508;SDS011;61750;55.036;73.312;2022-09-30T07:11:03;9.00;;;2.70;;
73508;SDS011;61750;55.036;73.312;2022-09-30T07:13:36;1.40;;;0.60;;
73508;SDS011;61750;55.036;73.312;2022-09-30T07:16:02;8.57;;;2.78;;
73508;SDS011;61750;55.036;73.312;2022-09-30T07:21:01;11.35;;;4.35;;
73508;SDS011;61750;55.036;73.312;2022-09-30T07:26:01;3.72;;;2.50;;
73508;SDS011;61750;55.036;73.312;2022-09-30T07:31:05;5.82;;;2.55;;
73508;SDS011;61750;55.036;73.312;2022-09-30T07:33:33;5.93;;;2.80;;
73508;SDS011;61750;55.036;73.312;2022-09-30T07:36:00;9.52;;;2.92;;
73508;SDS011;61750;55.036;73.312;2022-09-30T07:41:04;11.32;;;3.45;;
73508;SDS011;61750;55.036;73.312;2022-09-30T07:46:15;6.32;;;3.15;;
73508;SDS011;61750;55.036;73.312;2022-09-30T07:48:45;4.28;;;2.28;;
73508;SDS011;61750;55.036;73.312;2022-09-30T07:51:28;4.43;;;2.42;;
73508;SDS011;61750;55.036;73.312;2022-09-30T07:54:06;17.40;;;4.57;;
73508;SDS011;61750;55.036;73.312;2022-09-30T07:56:34;8.88;;;3.33;;
73508;SDS011;61750;55.036;73.312;2022-09-30T07:59:03;10.05;;;3.10;;
73508;SDS011;61750;55.036;73.312;2022-09-30T08:01:31;6.45;;;3.50;;
73508;SDS011;61750;55.036;73.312;2022-09-30T08:03:58;9.63;;;3.92;;
73508;SDS011;61750;55.036;73.312;2022-09-30T08:06:26;6.10;;;3.03;;
73508;SDS011;61750;55.036;73.312;2022-09-30T08:09:00;4.05;;;2.20;;
73508;SDS011;61750;55.036;73.312;2022-09-30T08:11:26;7.32;;;3.47;;
73508;SDS011;61750;55.036;73.312;2022-09-30T08:13:55;6.78;;;2.95;;
73508;SDS011;61750;55.036;73.312;2022-09-30T08:16:22;6.07;;;2.63;;
73508;SDS011;61750;55.036;73.312;2022-09-30T08:18:56;9.05;;;3.13;;
73508;SDS011;61750;55.036;73.312;2022-09-30T08:21:24;7.95;;;3.20;;
73508;SDS011;61750;55.036;73.312;2022-09-30T08:23:51;16.70;;;4.38;;
73508;SDS011;61750;55.036;73.312;2022-09-30T08:26:18;6.63;;;2.88;;
73508;SDS011;61750;55.036;73.312;2022-09-30T08:28:45;5.73;;;3.00;;
73508;SDS011;61750;55.036;73.312;2022-09-30T08:31:14;6.45;;;3.33;;
73508;SDS011;61750;55.036;73.312;2022-09-30T08:33:47;4.28;;;2.88;;
73508;SDS011;61750;55.036;73.312;2022-09-30T08:36:24;8.90;;;3.97;;
73508;SDS011;61750;55.036;73.312;2022-09-30T08:38:52;7.43;;;3.45;;
73508;SDS011;61750;55.036;73.312;2022-09-30T08:44:04;9.55;;;3.47;;
73508;SDS011;61750;55.036;73.312;2022-09-30T08:46:45;10.52;;;3.40;;
73508;SDS011;61750;55.036;73.312;2022-09-30T08:52:02;7.80;;;2.95;;
73508;SDS011;61750;55.036;73.312;2022-09-30T08:54:33;11.82;;;2.97;;
73508;SDS011;61750;55.036;73.312;2022-09-30T08:57:00;7.50;;;2.97;;
73508;SDS011;61750;55.036;73.312;2022-09-30T08:59:39;8.65;;;2.72;;
73508;SDS011;61750;55.036;73.312;2022-09-30T09:02:17;6.95;;;2.75;;
73508;SDS011;61750;55.036;73.312;2022-09-30T09:05:17;6.03;;;2.67;;
73508;SDS011;61750;55.036;73.312;2022-09-30T09:11:17;6.60;;;3.55;;
73508;SDS011;61750;55.036;73.312;2022-09-30T09:17:12;8.35;;;4.20;;
73508;SDS011;61750;55.036;73.312;2022-09-30T09:20:02;6.13;;;3.33;;
73508;SDS011;61750;55.036;73.312;2022-09-30T09:22:30;16.38;;;4.18;;
73508;SDS011;61750;55.036;73.312;2022-09-30T09:24:58;14.07;;;3.67;;
73508;SDS011;61750;55.036;73.312;2022-09-30T09:27:29;10.82;;;3.90;;
73508;SDS011;61750;55.036;73.312;2022-09-30T09:30:18;19.85;;;4.15;;
73508;SDS011;61750;55.036;73.312;2022-09-30T09:32:53;32.25;;;5.85;;
73508;SDS011;61750;55.036;73.312;2022-09-30T09:47:11;5.90;;;3.15;;
73508;SDS011;61750;55.036;73.312;2022-09-30T09:49:44;9.63;;;4.50;;
73508;SDS011;61750;55.036;73.312;2022-09-30T09:54:52;13.82;;;4.53;;
73508;SDS011;61750;55.036;73.312;2022-09-30T09:57:22;18.63;;;5.00;;
73508;SDS011;61750;55.036;73.312;2022-09-30T10:03:14;7.81;;;4.34;;
73508;SDS011;61750;55.036;73.312;2022-09-30T10:06:05;12.02;;;4.00;;
73508;SDS011;61750;55.036;73.312;2022-09-30T10:11:06;6.55;;;3.75;;
73508;SDS011;61750;55.036;73.312;2022-09-30T10:13:43;11.63;;;2.92;;
73508;SDS011;61750;55.036;73.312;2022-09-30T10:18:55;7.00;;;2.97;;
73508;SDS011;61750;55.036;73.312;2022-09-30T10:21:23;6.72;;;3.90;;
73508;SDS011;61750;55.036;73.312;2022-09-30T10:23:51;10.03;;;4.60;;
73508;SDS011;61750;55.036;73.312;2022-09-30T10:26:28;8.63;;;3.75;;
73508;SDS011;61750;55.036;73.312;2022-09-30T10:28:57;9.05;;;3.53;;
73508;SDS011;61750;55.036;73.312;2022-09-30T10:31:26;10.88;;;4.03;;
73508;SDS011;61750;55.036;73.312;2022-09-30T10:34:00;16.35;;;5.15;;
73508;SDS011;61750;55.036;73.312;2022-09-30T10:36:34;9.05;;;3.65;;
73508;SDS011;61750;55.036;73.312;2022-09-30T10:39:05;10.27;;;4.13;;
73508;SDS011;61750;55.036;73.312;2022-09-30T10:41:35;12.18;;;4.75;;
73508;SDS011;61750;55.036;73.312;2022-09-30T10:44:04;10.98;;;4.18;;
73508;SDS011;61750;55.036;73.312;2022-09-30T10:46:39;6.68;;;3.83;;
73508;SDS011;61750;55.036;73.312;2022-09-30T10:49:10;4.72;;;2.80;;
73508;SDS011;61750;55.036;73.312;2022-09-30T10:51:55;11.48;;;4.93;;
73508;SDS011;61750;55.036;73.312;2022-09-30T10:57:01;15.52;;;4.25;;
73508;SDS011;61750;55.036;73.312;2022-09-30T10:59:36;6.65;;;3.40;;
73508;SDS011;61750;55.036;73.312;2022-09-30T11:08:01;8.30;;;3.53;;
73508;SDS011;61750;55.036;73.312;2022-09-30T11:29:54;15.95;;;4.63;;
73508;SDS011;61750;55.036;73.312;2022-09-30T11:32:34;6.65;;;4.15;;
73508;SDS011;61750;55.036;73.312;2022-09-30T11:35:39;14.90;;;5.07;;
73508;SDS011;61750;55.036;73.312;2022-09-30T11:41:29;10.90;;;4.53;;
73508;SDS011;61750;55.036;73.312;2022-09-30T11:54:45;7.13;;;3.40;;
73508;SDS011;61750;55.036;73.312;2022-09-30T11:57:31;11.00;;;4.55;;
73508;SDS011;61750;55.036;73.312;2022-09-30T12:02:43;9.45;;;4.00;;
73508;SDS011;61750;55.036;73.312;2022-09-30T12:05:19;14.73;;;5.03;;
73508;SDS011;61750;55.036;73.312;2022-09-30T12:08:36;12.44;;;4.56;;
73508;SDS011;61750;55.036;73.312;2022-09-30T12:11:22;10.07;;;5.38;;
73508;SDS011;61750;55.036;73.312;2022-09-30T12:14:02;9.98;;;4.18;;
73508;SDS011;61750;55.036;73.312;2022-09-30T12:16:32;8.60;;;3.10;;
73508;SDS011;61750;55.036;73.312;2022-09-30T12:24:28;16.23;;;4.25;;
73508;SDS011;61750;55.036;73.312;2022-09-30T12:26:57;7.88;;;4.00;;
73508;SDS011;61750;55.036;73.312;2022-09-30T12:29:31;13.57;;;4.00;;
73508;SDS011;61750;55.036;73.312;2022-09-30T12:35:30;11.27;;;4.10;;
73508;SDS011;61750;55.036;73.312;2022-09-30T12:38:57;9.07;;;3.78;;
73508;SDS011;61750;55.036;73.312;2022-09-30T12:44:58;18.38;;;5.03;;
73508;SDS011;61750;55.036;73.312;2022-09-30T12:47:39;13.05;;;4.20;;
73508;SDS011;61750;55.036;73.312;2022-09-30T12:50:15;12.82;;;4.63;;
73508;SDS011;61750;55.036;73.312;2022-09-30T12:52:44;8.20;;;4.05;;
73508;SDS011;61750;55.036;73.312;2022-09-30T12:55:20;12.20;;;5.20;;
73508;SDS011;61750;55.036;73.312;2022-09-30T12:57:51;10.75;;;4.75;;
73508;SDS011;61750;55.036;73.312;2022-09-30T13:00:19;9.35;;;3.95;;
73508;SDS011;61750;55.036;73.312;2022-09-30T13:02:52;8.73;;;3.90;;
73508;SDS011;61750;55.036;73.312;2022-09-30T13:08:42;23.97;;;6.14;;
73508;SDS011;61750;55.036;73.312;2022-09-30T13:11:32;18.85;;;5.35;;
73508;SDS011;61750;55.036;73.312;2022-09-30T13:19:39;12.63;;;5.18;;
73508;SDS011;61750;55.036;73.312;2022-09-30T13:32:44;15.43;;;5.50;;
73508;SDS011;61750;55.036;73.312;2022-09-30T13:38:37;12.82;;;6.57;;
73508;SDS011;61750;55.036;73.312;2022-09-30T13:41:07;18.42;;;7.90;;
73508;SDS011;61750;55.036;73.312;2022-09-30T13:44:07;15.40;;;4.90;;
73508;SDS011;61750;55.036;73.312;2022-09-30T13:46:50;17.55;;;6.25;;
73508;SDS011;61750;55.036;73.312;2022-09-30T13:49:22;17.10;;;5.88;;
73508;SDS011;61750;55.036;73.312;2022-09-30T13:52:30;16.35;;;5.85;;
73508;SDS011;61750;55.036;73.312;2022-09-30T13:55:04;23.20;;;6.85;;
73508;SDS011;61750;55.036;73.312;2022-09-30T14:07:16;13.80;;;5.78;;
73508;SDS011;61750;55.036;73.312;2022-09-30T14:15:38;13.40;;;5.53;;
73508;SDS011;61750;55.036;73.312;2022-09-30T14:21:52;14.65;;;5.72;;
73508;SDS011;61750;55.036;73.312;2022-09-30T14:24:25;14.13;;;5.82;;
73508;SDS011;61750;55.036;73.312;2022-09-30T14:29:50;18.42;;;5.18;;
73508;SDS011;61750;55.036;73.312;2022-09-30T14:32:31;13.50;;;4.95;;
73508;SDS011;61750;55.036;73.312;2022-09-30T14:35:05;19.63;;;5.00;;
73508;SDS011;61750;55.036;73.312;2022-09-30T14:37:38;22.15;;;5.80;;
73508;SDS011;61750;55.036;73.312;2022-09-30T14:40:12;13.63;;;5.07;;
73508;SDS011;61750;55.036;73.312;2022-09-30T14:42:43;14.27;;;5.60;;
73508;SDS011;61750;55.036;73.312;2022-09-30T14:45:17;20.60;;;5.68;;
73508;SDS011;61750;55.036;73.312;2022-09-30T14:47:50;18.42;;;5.05;;
73508;SDS011;61750;55.036;73.312;2022-09-30T14:50:25;21.73;;;4.95;;
73508;SDS011;61750;55.036;73.312;2022-09-30T14:52:56;12.50;;;4.50;;
73508;SDS011;61750;55.036;73.312;2022-09-30T14:55:25;15.38;;;4.82;;
73508;SDS011;61750;55.036;73.312;2022-09-30T15:01:08;15.05;;;5.55;;
73508;SDS011;61750;55.036;73.312;2022-09-30T15:04:32;18.30;;;5.85;;
73508;SDS011;61750;55.036;73.312;2022-09-30T15:06:41;14.27;;;5.35;;
73508;SDS011;61750;55.036;73.312;2022-09-30T15:12:02;12.98;;;4.55;;
73508;SDS011;61750;55.036;73.312;2022-09-30T15:14:48;13.38;;;5.20;;
73508;SDS011;61750;55.036;73.312;2022-09-30T15:17:20;14.80;;;4.72;;
73508;SDS011;61750;55.036;73.312;2022-09-30T15:19:48;14.98;;;4.85;;
73508;SDS011;61750;55.036;73.312;2022-09-30T15:24:42;17.80;;;5.53;;
73508;SDS011;61750;55.036;73.312;2022-09-30T15:27:18;14.35;;;4.78;;
73508;SDS011;61750;55.036;73.312;2022-09-30T15:29:53;15.45;;;5.15;;
73508;SDS011;61750;55.036;73.312;2022-09-30T15:32:21;18.35;;;6.00;;
73508;SDS011;61750;55.036;73.312;2022-09-30T15:34:50;13.48;;;5.10;;
73508;SDS011;61750;55.036;73.312;2022-09-30T15:37:21;14.52;;;5.22;;
73508;SDS011;61750;55.036;73.312;2022-09-30T15:39:49;10.85;;;4.40;;
73508;SDS011;61750;55.036;73.312;2022-09-30T15:45:27;17.85;;;5.60;;
73508;SDS011;61750;55.036;73.312;2022-09-30T15:48:34;14.15;;;5.20;;
73508;SDS011;61750;55.036;73.312;2022-09-30T15:51:06;17.77;;;5.88;;
73508;SDS011;61750;55.036;73.312;2022-09-30T15:53:57;9.85;;;4.68;;
73508;SDS011;61750;55.036;73.312;2022-09-30T15:56:33;15.50;;;6.10;;
73508;SDS011;61750;55.036;73.312;2022-09-30T15:59:05;13.30;;;5.57;;
73508;SDS011;61750;55.036;73.312;2022-09-30T16:01:33;15.18;;;5.78;;
73508;SDS011;61750;55.036;73.312;2022-09-30T16:06:42;12.00;;;5.32;;
73508;SDS011;61750;55.036;73.312;2022-09-30T16:11:56;14.30;;;6.75;;
73508;SDS011;61750;55.036;73.312;2022-09-30T16:17:29;11.52;;;5.82;;
73508;SDS011;61750;55.036;73.312;2022-09-30T16:19:56;16.38;;;6.03;;
73508;SDS011;61750;55.036;73.312;2022-09-30T16:23:13;15.13;;;6.50;;
73508;SDS011;61750;55.036;73.312;2022-09-30T16:25:23;14.55;;;7.20;;
73508;SDS011;61750;55.036;73.312;2022-09-30T16:27:57;12.93;;;6.65;;
73508;SDS011;61750;55.036;73.312;2022-09-30T16:30:25;13.18;;;6.57;;
73508;SDS011;61750;55.036;73.312;2022-09-30T16:32:54;11.45;;;6.00;;
73508;SDS011;61750;55.036;73.312;2022-09-30T16:35:24;16.75;;;6.30;;
73508;SDS011;61750;55.036;73.312;2022-09-30T16:38:34;13.36;;;6.93;;
73508;SDS011;61750;55.036;73.312;2022-09-30T16:41:01;17.05;;;7.10;;
73508;SDS011;61750;55.036;73.312;2022-09-30T16:46:00;17.77;;;6.47;;
73508;SDS011;61750;55.036;73.312;2022-09-30T16:51:02;15.30;;;6.45;;
73508;SDS011;61750;55.036;73.312;2022-09-30T16:56:02;17.27;;;6.50;;
73508;SDS011;61750;55.036;73.312;2022-09-30T17:01:00;12.65;;;6.88;;
73508;SDS011;61750;55.036;73.312;2022-09-30T17:03:27;13.35;;;6.80;;
73508;SDS011;61750;55.036;73.312;2022-09-30T17:05:53;13.50;;;7.30;;
73508;SDS011;61750;55.036;73.312;2022-09-30T17:11:01;14.55;;;7.63;;
73508;SDS011;61750;55.036;73.312;2022-09-30T17:16:11;18.15;;;7.78;;
73508;SDS011;61750;55.036;73.312;2022-09-30T17:18:37;9.15;;;5.00;;
73508;SDS011;61750;55.036;73.312;2022-09-30T17:21:03;18.83;;;8.20;;
73508;SDS011;61750;55.036;73.312;2022-09-30T17:26:04;18.88;;;8.25;;
73508;SDS011;61750;55.036;73.312;2022-09-30T17:31:01;11.27;;;6.75;;
73508;SDS011;61750;55.036;73.312;2022-09-30T17:33:33;17.17;;;8.15;;
73508;SDS011;61750;55.036;73.312;2022-09-30T17:36:02;14.25;;;8.07;;
73508;SDS011;61750;55.036;73.312;2022-09-30T17:41:01;20.50;;;7.82;;
73508;SDS011;61750;55.036;73.312;2022-09-30T17:43:46;16.83;;;7.25;;
73508;SDS011;61750;55.036;73.312;2022-09-30T17:46:13;13.63;;;7.55;;
73508;SDS011;61750;55.036;73.312;2022-09-30T17:48:45;15.05;;;6.30;;
73508;SDS011;61750;55.036;73.312;2022-09-30T17:51:13;13.30;;;6.57;;
73508;SDS011;61750;55.036;73.312;2022-09-30T17:53:42;20.77;;;6.07;;
73508;SDS011;61750;55.036;73.312;2022-09-30T17:56:16;16.15;;;6.72;;
73508;SDS011;61750;55.036;73.312;2022-09-30T17:58:45;13.07;;;5.50;;
73508;SDS011;61750;55.036;73.312;2022-09-30T18:01:14;13.38;;;7.05;;
73508;SDS011;61750;55.036;73.312;2022-09-30T18:03:41;13.68;;;6.28;;
73508;SDS011;61750;55.036;73.312;2022-09-30T18:06:09;14.55;;;7.20;;
73508;SDS011;61750;55.036;73.312;2022-09-30T18:08:36;9.60;;;3.00;;
73508;SDS011;61750;55.036;73.312;2022-09-30T18:11:03;12.25;;;5.97;;
73508;SDS011;61750;55.036;73.312;2022-09-30T18:16:03;11.55;;;6.22;;
73508;SDS011;61750;55.036;73.312;2022-09-30T18:21:01;15.07;;;6.35;;
73508;SDS011;61750;55.036;73.312;2022-09-30T18:26:00;11.77;;;5.93;;
73508;SDS011;61750;55.036;73.312;2022-09-30T18:31:05;13.23;;;6.80;;
73508;SDS011;61750;55.036;73.312;2022-09-30T18:33:33;13.18;;;5.72;;
73508;SDS011;61750;55.036;73.312;2022-09-30T18:35:59;14.20;;;6.18;;
73508;SDS011;61750;55.036;73.312;2022-09-30T18:41:10;13.30;;;5.93;;
73508;SDS011;61750;55.036;73.312;2022-09-30T18:43:37;7.15;;;3.70;;
73508;SDS011;61750;55.036;73.312;2022-09-30T18:46:04;12.52;;;6.32;;
73508;SDS011;61750;55.036;73.312;2022-09-30T18:51:04;14.75;;;6.50;;
73508;SDS011;61750;55.036;73.312;2022-09-30T18:56:01;13.38;;;6.10;;
73508;SDS011;61750;55.036;73.312;2022-09-30T19:01:02;17.52;;;6.22;;
73508;SDS011;61750;55.036;73.312;2022-09-30T19:03:29;12.15;;;6.43;;
73508;SDS011;61750;55.036;73.312;2022-09-30T19:05:56;12.68;;;5.90;;
73508;SDS011;61750;55.036;73.312;2022-09-30T19:11:05;12.93;;;7.45;;
73508;SDS011;61750;55.036;73.312;2022-09-30T19:16:05;18.52;;;6.95;;
73508;SDS011;61750;55.036;73.312;2022-09-30T19:21:02;17.42;;;7.57;;
73508;SDS011;61750;55.036;73.312;2022-09-30T19:26:01;17.40;;;7.22;;
73508;SDS011;61750;55.036;73.312;2022-09-30T19:31:07;23.00;;;7.45;;
73508;SDS011;61750;55.036;73.312;2022-09-30T19:33:36;17.55;;;7.93;;
73508;SDS011;61750;55.036;73.312;2022-09-30T19:36:07;20.58;;;8.32;;
73508;SDS011;61750;55.036;73.312;2022-09-30T19:41:03;16.92;;;7.60;;
73508;SDS011;61750;55.036;73.312;2022-09-30T19:46:08;15.93;;;6.78;;
73508;SDS011;61750;55.036;73.312;2022-09-30T19:51:14;16.95;;;9.25;;
73508;SDS011;61750;55.036;73.312;2022-09-30T19:53:44;12.70;;;6.72;;
73508;SDS011;61750;55.036;73.312;2022-09-30T19:56:15;13.55;;;6.10;;
73508;SDS011;61750;55.036;73.312;2022-09-30T19:58:51;9.88;;;5.20;;
73508;SDS011;61750;55.036;73.312;2022-09-30T20:01:20;12.05;;;5.32;;
73508;SDS011;61750;55.036;73.312;2022-09-30T20:03:58;10.15;;;4.60;;
73508;SDS011;61750;55.036;73.312;2022-09-30T20:06:27;10.00;;;4.47;;
73508;SDS011;61750;55.036;73.312;2022-09-30T20:08:54;11.95;;;5.28;;
73508;SDS011;61750;55.036;73.312;2022-09-30T20:11:23;9.60;;;4.28;;
73508;SDS011;61750;55.036;73.312;2022-09-30T20:13:51;7.70;;;4.63;;
73508;SDS011;61750;55.036;73.312;2022-09-30T20:16:39;11.40;;;5.10;;
73508;SDS011;61750;55.036;73.312;2022-09-30T20:19:06;10.43;;;4.30;;
73508;SDS011;61750;55.036;73.312;2022-09-30T20:21:33;9.82;;;4.53;;
73508;SDS011;61750;55.036;73.312;2022-09-30T20:24:10;9.05;;;4.45;;
73508;SDS011;61750;55.036;73.312;2022-09-30T20:26:47;11.13;;;5.55;;
73508;SDS011;61750;55.036;73.312;2022-09-30T20:29:14;12.52;;;5.13;;
73508;SDS011;61750;55.036;73.312;2022-09-30T20:31:45;13.18;;;5.10;;
73508;SDS011;61750;55.036;73.312;2022-09-30T20:34:12;10.88;;;5.10;;
73508;SDS011;61750;55.036;73.312;2022-09-30T20:36:40;11.45;;;5.47;;
73508;SDS011;61750;55.036;73.312;2022-09-30T20:39:07;11.57;;;5.47;;
73508;SDS011;61750;55.036;73.312;2022-09-30T20:41:43;8.00;;;4.53;;
73508;SDS011;61750;55.036;73.312;2022-09-30T20:44:20;12.88;;;5.50;;
73508;SDS011;61750;55.036;73.312;2022-09-30T20:46:55;8.90;;;4.53;;